createdAt,value
2023-01-19T00:00:27.220Z,2.13
2023-01-19T00:03:15.275Z,1.90
2023-01-19T00:06:05.203Z,2.10
2023-01-19T00:08:50.389Z,1.83
2023-01-19T00:11:35.300Z,2.10
2023-01-19T00:14:20.263Z,2.05
2023-01-19T00:17:05.338Z,2.08
2023-01-19T00:19:50.149Z,2.03
2023-01-19T00:22:35.044Z,2.20
2023-01-19T00:25:19.981Z,1.90
2023-01-19T00:28:05.040Z,2.00
2023-01-19T00:30:50.748Z,2.00
2023-01-19T00:33:35.627Z,1.95
2023-01-19T00:36:20.605Z,2.05
2023-01-19T00:39:05.629Z,2.22
2023-01-19T00:42:08.985Z,2.15
2023-01-19T00:44:54.857Z,2.45
2023-01-19T00:47:39.527Z,2.70
2023-01-19T00:50:27.171Z,2.42
2023-01-19T00:53:12.317Z,2.40
2023-01-19T00:55:57.324Z,2.72
2023-01-19T00:58:42.489Z,2.72
2023-01-19T01:01:45.240Z,2.88
2023-01-19T01:04:31.909Z,2.90
2023-01-19T01:07:16.835Z,2.63
2023-01-19T01:10:01.584Z,2.70
2023-01-19T01:12:57.313Z,4.47
2023-01-19T01:15:43.829Z,4.85
2023-01-19T01:18:29.092Z,4.57
2023-01-19T01:21:13.811Z,4.30
2023-01-19T01:23:58.658Z,4.30
2023-01-19T01:26:43.919Z,5.55
2023-01-19T01:29:28.682Z,5.50
2023-01-19T01:34:59.261Z,4.43
2023-01-19T01:40:29.184Z,4.25
2023-01-19T01:43:16.362Z,4.25
2023-01-19T01:46:00.972Z,3.92
2023-01-19T01:48:56.891Z,4.30
2023-01-19T01:51:46.253Z,4.13
2023-01-19T01:54:32.929Z,4.18
2023-01-19T01:57:18.132Z,4.70
2023-01-19T02:00:05.637Z,4.10
2023-01-19T02:02:51.175Z,4.55
2023-01-19T02:05:36.484Z,4.38
2023-01-19T02:09:01.574Z,3.55
2023-01-19T02:12:06.134Z,3.88
2023-01-19T02:14:50.999Z,3.92
2023-01-19T02:20:23.900Z,3.88
2023-01-19T02:23:16.742Z,4.38
2023-01-19T02:26:02.809Z,4.82
2023-01-19T02:28:51.439Z,4.88
2023-01-19T02:31:38.525Z,5.03
2023-01-19T02:34:23.192Z,5.97
2023-01-19T02:40:01.343Z,5.35
2023-01-19T02:42:51.655Z,5.53
2023-01-19T02:45:37.242Z,5.03
2023-01-19T02:48:22.737Z,5.15
2023-01-19T02:51:16.381Z,6.18
2023-01-19T02:54:11.844Z,6.25
2023-01-19T02:56:56.632Z,5.70
2023-01-19T03:02:50.530Z,5.40
2023-01-19T03:05:44.613Z,5.40
2023-01-19T03:08:38.961Z,5.20
2023-01-19T03:11:29.277Z,5.75
2023-01-19T03:14:19.364Z,5.60
2023-01-19T03:17:07.799Z,6.22
2023-01-19T03:19:53.738Z,6.22
2023-01-19T03:22:38.857Z,6.07
2023-01-19T03:25:25.561Z,6.25
2023-01-19T03:28:13.761Z,6.93
2023-01-19T03:31:10.322Z,6.28
2023-01-19T03:33:59.185Z,6.75
2023-01-19T03:36:54.307Z,6.50
2023-01-19T03:39:39.542Z,6.60
2023-01-19T03:42:26.683Z,6.47
2023-01-19T03:45:13.205Z,7.03
2023-01-19T03:47:58.991Z,6.13
2023-01-19T03:50:43.759Z,6.43
2023-01-19T03:53:28.823Z,6.78
2023-01-19T03:56:22.516Z,7.13
2023-01-19T03:59:07.508Z,6.55
2023-01-19T04:01:52.626Z,7.53
2023-01-19T04:04:37.532Z,7.18
2023-01-19T04:10:11.948Z,7.18
2023-01-19T04:12:58.506Z,6.80
2023-01-19T04:15:43.559Z,6.43
2023-01-19T04:18:30.310Z,5.97
2023-01-19T04:21:16.172Z,5.78
2023-01-19T04:24:00.850Z,6.15
2023-01-19T04:26:45.808Z,6.47
2023-01-19T04:29:30.965Z,6.85
2023-01-19T04:32:18.553Z,6.47
2023-01-19T04:35:04.051Z,5.97
2023-01-19T04:37:48.997Z,6.38
2023-01-19T04:40:33.894Z,6.63
2023-01-19T04:43:19.886Z,5.47
2023-01-19T04:46:04.971Z,6.68
2023-01-19T04:48:49.897Z,6.80
2023-01-19T04:51:35.077Z,6.90
2023-01-19T04:54:21.553Z,7.05
2023-01-19T04:57:06.378Z,7.25
2023-01-19T05:02:36.275Z,6.65
2023-01-19T05:05:21.368Z,5.85
2023-01-19T05:08:06.267Z,6.43
2023-01-19T05:10:51.220Z,6.70
2023-01-19T05:13:36.239Z,6.47
2023-01-19T05:16:21.184Z,7.97
2023-01-19T05:19:06.244Z,8.65
2023-01-19T05:21:51.341Z,7.80
2023-01-19T05:24:36.342Z,7.07
2023-01-19T05:27:21.529Z,8.38
2023-01-19T05:30:06.901Z,9.20
2023-01-19T05:32:51.807Z,8.60
2023-01-19T05:35:36.965Z,10.02
2023-01-19T05:38:34.303Z,9.00
2023-01-19T05:41:20.081Z,6.65
2023-01-19T05:44:05.191Z,6.60
2023-01-19T05:49:35.486Z,6.53
2023-01-19T05:52:21.376Z,7.13
2023-01-19T05:55:06.565Z,11.18
2023-01-19T05:57:51.450Z,11.32
2023-01-19T06:00:36.468Z,9.48
2023-01-19T06:06:06.083Z,7.18
2023-01-19T06:08:50.826Z,6.97
2023-01-19T06:11:35.872Z,6.28
2023-01-19T06:14:20.838Z,6.35
2023-01-19T06:17:06.211Z,7.50
2023-01-19T06:19:51.156Z,7.32
2023-01-19T06:22:36.430Z,7.40
2023-01-19T06:25:21.114Z,7.45
2023-01-19T06:28:06.324Z,6.78
2023-01-19T06:30:52.776Z,6.88
2023-01-19T06:33:37.601Z,5.68
2023-01-19T06:36:22.567Z,6.53
2023-01-19T06:39:09.133Z,5.65
2023-01-19T06:41:53.848Z,5.72
2023-01-19T06:44:38.502Z,5.18
2023-01-19T06:47:23.724Z,5.50
2023-01-19T06:50:08.990Z,5.18
2023-01-19T06:52:53.895Z,6.38
2023-01-19T06:55:38.885Z,5.68
2023-01-19T06:58:23.932Z,6.38
2023-01-19T07:01:09.368Z,4.68
2023-01-19T07:03:54.115Z,4.50
2023-01-19T07:06:39.419Z,5.82
2023-01-19T07:09:25.373Z,6.90
2023-01-19T07:12:12.893Z,5.22
2023-01-19T07:14:58.366Z,5.00
2023-01-19T07:17:43.558Z,5.93
2023-01-19T07:20:28.410Z,5.47
2023-01-19T07:23:13.481Z,6.07
2023-01-19T07:26:02.823Z,7.10
2023-01-19T07:28:48.750Z,6.43
2023-01-19T07:31:34.076Z,5.95
2023-01-19T07:34:19.519Z,5.38
2023-01-19T07:37:04.346Z,5.15
2023-01-19T07:39:49.260Z,5.38
2023-01-19T07:42:34.473Z,6.40
2023-01-19T07:45:28.033Z,5.25
2023-01-19T07:48:17.775Z,5.07
2023-01-19T07:51:08.241Z,3.95
2023-01-19T07:53:54.825Z,4.55
2023-01-19T07:56:40.863Z,5.15
2023-01-19T07:59:27.422Z,5.60
2023-01-19T08:02:12.752Z,4.50
2023-01-19T08:04:58.305Z,4.63
2023-01-19T08:07:44.714Z,4.47
2023-01-19T08:10:30.208Z,4.22
2023-01-19T08:13:19.091Z,4.25
2023-01-19T08:16:04.311Z,3.92
2023-01-19T08:18:49.451Z,3.63
2023-01-19T08:21:35.749Z,3.35
2023-01-19T08:24:22.320Z,4.07
2023-01-19T08:27:09.750Z,3.85
2023-01-19T08:29:54.737Z,3.70
2023-01-19T08:32:39.661Z,3.67
2023-01-19T08:35:24.711Z,3.53
2023-01-19T08:38:10.157Z,3.78
2023-01-19T08:40:55.087Z,3.70
2023-01-19T08:43:39.989Z,3.58
2023-01-19T08:46:25.122Z,3.65
2023-01-19T08:49:09.945Z,3.50
2023-01-19T08:51:54.847Z,4.35
2023-01-19T08:54:39.727Z,4.72
2023-01-19T08:57:26.333Z,5.75
2023-01-19T09:00:11.930Z,4.85
2023-01-19T09:02:57.295Z,5.03
2023-01-19T09:05:42.416Z,4.68
2023-01-19T09:08:27.257Z,6.50
2023-01-19T09:11:14.439Z,6.55
2023-01-19T09:14:01.529Z,5.60
2023-01-19T09:16:46.615Z,4.53
2023-01-19T09:19:32.242Z,4.45
2023-01-19T09:22:17.572Z,3.95
2023-01-19T09:25:02.805Z,3.88
2023-01-19T09:27:47.692Z,4.13
2023-01-19T09:30:33.550Z,4.32
2023-01-19T09:33:19.236Z,3.33
2023-01-19T09:36:04.461Z,3.55
2023-01-19T09:38:49.274Z,4.47
2023-01-19T09:41:38.050Z,3.83
2023-01-19T09:44:34.495Z,3.55
2023-01-19T09:47:30.120Z,3.80
2023-01-19T09:50:33.767Z,3.85
2023-01-19T09:53:40.251Z,3.80
2023-01-19T09:56:27.263Z,3.90
2023-01-19T09:59:17.453Z,3.72
2023-01-19T10:02:02.289Z,4.75
2023-01-19T10:08:15.950Z,4.60
2023-01-19T10:11:01.361Z,4.78
2023-01-19T10:13:48.929Z,5.00
2023-01-19T10:16:52.202Z,5.40
2023-01-19T10:19:46.392Z,6.95
2023-01-19T10:22:32.750Z,6.97
2023-01-19T10:25:23.108Z,7.00
2023-01-19T10:28:10.595Z,6.55
2023-01-19T10:30:55.663Z,6.38
2023-01-19T10:33:40.593Z,7.30
2023-01-19T10:36:33.176Z,7.82
2023-01-19T10:39:18.562Z,8.05
2023-01-19T10:42:06.064Z,7.93
2023-01-19T10:44:50.696Z,8.43
2023-01-19T10:47:36.536Z,9.68
2023-01-19T10:50:30.130Z,8.23
2023-01-19T10:53:20.950Z,9.40
2023-01-19T10:56:24.484Z,9.48
2023-01-19T11:02:16.821Z,8.85
2023-01-19T11:05:22.923Z,10.07
2023-01-19T11:08:23.323Z,9.00
2023-01-19T11:11:08.906Z,9.48
2023-01-19T11:14:09.674Z,10.07
2023-01-19T11:16:56.635Z,11.00
2023-01-19T11:19:41.894Z,11.95
2023-01-19T11:22:32.553Z,11.32
2023-01-19T11:25:36.506Z,11.75
2023-01-19T11:28:39.091Z,11.38
2023-01-19T11:31:35.085Z,11.60
2023-01-19T11:34:31.309Z,11.77
2023-01-19T11:37:15.838Z,11.00
2023-01-19T11:42:48.663Z,9.43
2023-01-19T11:45:34.204Z,11.18
2023-01-19T11:48:35.710Z,11.02
2023-01-19T11:51:22.727Z,11.50
2023-01-19T11:54:19.308Z,10.88
2023-01-19T11:57:12.454Z,11.25
2023-01-19T12:00:03.096Z,11.18
2023-01-19T12:02:57.414Z,10.27
2023-01-19T12:05:48.507Z,10.00
2023-01-19T12:08:42.057Z,10.60
2023-01-19T12:11:34.989Z,10.55
2023-01-19T12:14:26.506Z,10.40
2023-01-19T12:17:29.149Z,10.98
2023-01-19T12:20:14.441Z,11.13
2023-01-19T12:23:18.206Z,11.98
2023-01-19T12:26:15.232Z,11.90
2023-01-19T12:32:13.409Z,12.02
2023-01-19T12:37:43.368Z,11.43
2023-01-19T12:40:30.728Z,11.98
2023-01-19T12:43:16.523Z,11.57
2023-01-19T12:46:01.569Z,11.77
2023-01-19T12:48:46.740Z,12.02
2023-01-19T12:51:32.469Z,12.57
2023-01-19T12:54:31.155Z,12.68
2023-01-19T12:57:24.681Z,12.93
2023-01-19T13:00:22.441Z,14.43
2023-01-19T13:06:04.259Z,12.63
2023-01-19T13:08:52.746Z,12.57
2023-01-19T13:12:17.293Z,15.48
2023-01-19T13:15:36.220Z,13.68
2023-01-19T13:18:24.684Z,12.73
2023-01-19T13:21:11.010Z,12.80
2023-01-19T13:23:58.133Z,12.55
2023-01-19T13:26:56.931Z,12.60
2023-01-19T13:29:43.211Z,12.45
2023-01-19T13:32:29.077Z,12.98
2023-01-19T13:35:18.203Z,12.32
2023-01-19T13:38:04.625Z,12.90
2023-01-19T13:40:54.402Z,12.60
2023-01-19T13:43:39.263Z,11.95
2023-01-19T13:46:26.668Z,13.15
2023-01-19T13:49:36.342Z,12.98
2023-01-19T13:52:30.705Z,13.25
2023-01-19T13:55:16.945Z,12.52
2023-01-19T13:58:01.920Z,13.00
2023-01-19T14:00:46.849Z,12.27
2023-01-19T14:03:32.296Z,13.55
2023-01-19T14:06:31.048Z,13.60
2023-01-19T14:09:19.231Z,13.63
2023-01-19T14:12:11.429Z,14.77
2023-01-19T14:14:57.820Z,14.57
2023-01-19T14:17:42.825Z,13.80
2023-01-19T14:20:29.454Z,16.50
2023-01-19T14:23:49.615Z,31.65
2023-01-19T14:26:37.166Z,28.27
2023-01-19T14:29:29.242Z,35.72
2023-01-19T14:32:24.343Z,27.48
2023-01-19T14:35:09.703Z,20.90
2023-01-19T14:37:54.916Z,18.55
2023-01-19T14:40:39.920Z,17.63
2023-01-19T14:43:27.982Z,18.20
2023-01-19T14:46:19.236Z,17.92
2023-01-19T14:49:05.963Z,17.20
2023-01-19T14:51:51.359Z,18.30
2023-01-19T14:54:41.012Z,18.27
2023-01-19T14:57:25.983Z,18.23
2023-01-19T15:00:21.782Z,19.77
2023-01-19T15:03:06.734Z,19.55
2023-01-19T15:05:52.621Z,17.33
2023-01-19T15:08:38.668Z,17.10
2023-01-19T15:11:30.804Z,22.15
2023-01-19T15:14:18.092Z,22.63
2023-01-19T15:17:03.415Z,22.42
2023-01-19T15:19:48.277Z,19.25
2023-01-19T15:22:33.240Z,17.90
2023-01-19T15:25:20.560Z,17.27
2023-01-19T15:28:10.598Z,19.90
2023-01-19T15:30:57.025Z,19.90
2023-01-19T15:33:42.419Z,19.08
2023-01-19T15:36:27.038Z,17.95
2023-01-19T15:39:12.120Z,16.75
2023-01-19T15:41:56.969Z,18.63
2023-01-19T15:44:42.020Z,18.08
2023-01-19T15:47:26.907Z,16.98
2023-01-19T15:50:11.685Z,17.58
2023-01-19T15:52:57.126Z,19.50
2023-01-19T15:55:42.531Z,20.73
2023-01-19T15:58:27.927Z,20.65
2023-01-19T16:01:15.243Z,20.80
2023-01-19T16:04:03.472Z,21.35
2023-01-19T16:06:49.477Z,23.08
2023-01-19T16:09:34.333Z,26.38
2023-01-19T16:12:19.153Z,27.95
2023-01-19T16:15:04.413Z,25.70
2023-01-19T16:17:49.059Z,27.45
2023-01-19T16:20:34.269Z,28.10
2023-01-19T16:23:19.012Z,26.30
2023-01-19T16:26:26.391Z,23.02
2023-01-19T16:29:11.309Z,23.10
2023-01-19T16:31:56.260Z,25.48
2023-01-19T16:34:41.673Z,27.33
2023-01-19T16:37:28.059Z,25.58
2023-01-19T16:40:13.214Z,22.40
2023-01-19T16:42:58.053Z,21.65
2023-01-19T16:45:58.472Z,20.73
2023-01-19T16:48:43.356Z,18.02
2023-01-19T16:51:28.555Z,18.77
2023-01-19T16:54:19.131Z,21.80
2023-01-19T16:57:04.073Z,22.48
2023-01-19T16:59:50.069Z,22.60
2023-01-19T17:02:34.937Z,20.35
2023-01-19T17:05:20.008Z,19.38
2023-01-19T17:08:05.014Z,19.42
2023-01-19T17:10:50.452Z,19.00
2023-01-19T17:13:35.276Z,17.17
2023-01-19T17:16:21.627Z,19.48
2023-01-19T17:19:06.939Z,19.90
2023-01-19T17:21:51.956Z,19.65
2023-01-19T17:24:42.069Z,22.00
2023-01-19T17:27:26.843Z,21.17
2023-01-19T17:30:12.627Z,20.95
2023-01-19T17:32:57.834Z,22.75
2023-01-19T17:35:42.727Z,21.88
2023-01-19T17:38:28.131Z,22.58
2023-01-19T17:41:18.207Z,20.80
2023-01-19T17:44:05.122Z,20.42
2023-01-19T17:46:50.146Z,19.15
2023-01-19T17:49:35.191Z,19.27
2023-01-19T17:52:19.993Z,18.95
2023-01-19T17:55:05.484Z,18.52
2023-01-19T17:57:50.389Z,18.02
2023-01-19T18:00:35.266Z,17.80
2023-01-19T18:03:22.573Z,16.52
2023-01-19T18:06:08.554Z,16.45
2023-01-19T18:08:53.521Z,15.38
2023-01-19T18:11:38.487Z,15.48
2023-01-19T18:14:23.489Z,17.27
2023-01-19T18:17:08.287Z,16.55
2023-01-19T18:19:54.129Z,15.80
2023-01-19T18:22:38.939Z,15.90
2023-01-19T18:25:23.739Z,16.20
2023-01-19T18:28:09.028Z,15.43
2023-01-19T18:30:54.220Z,15.70
2023-01-19T18:33:39.930Z,15.82
2023-01-19T18:36:25.332Z,15.60
2023-01-19T18:39:10.218Z,16.23
2023-01-19T18:41:55.145Z,15.68
2023-01-19T18:44:39.943Z,15.38
2023-01-19T18:47:25.060Z,15.00
2023-01-19T18:50:12.193Z,14.88
2023-01-19T18:52:57.162Z,14.27
2023-01-19T18:55:56.739Z,14.70
2023-01-19T18:58:42.241Z,13.10
2023-01-19T19:01:34.480Z,12.75
2023-01-19T19:04:19.514Z,13.45
2023-01-19T19:07:04.849Z,12.43
2023-01-19T19:09:49.559Z,13.00
2023-01-19T19:12:34.941Z,11.65
2023-01-19T19:15:20.120Z,13.98
2023-01-19T19:18:04.933Z,12.30
2023-01-19T19:20:50.107Z,12.93
2023-01-19T19:23:36.118Z,14.52
2023-01-19T19:26:24.472Z,13.88
2023-01-19T19:29:09.548Z,12.52
2023-01-19T19:31:56.056Z,15.13
2023-01-19T19:34:41.136Z,16.15
2023-01-19T19:37:26.119Z,15.02
2023-01-19T19:40:11.469Z,15.13
2023-01-19T19:42:58.691Z,14.88
2023-01-19T19:45:44.197Z,13.52
2023-01-19T19:48:29.516Z,12.60
2023-01-19T19:51:22.046Z,13.27
2023-01-19T19:54:06.965Z,12.55
2023-01-19T19:56:53.071Z,12.45
2023-01-19T19:59:38.261Z,14.40
2023-01-19T20:02:23.061Z,13.85
2023-01-19T20:05:08.484Z,12.23
2023-01-19T20:07:53.099Z,12.45
2023-01-19T20:10:37.960Z,12.10
2023-01-19T20:13:23.059Z,12.00
2023-01-19T20:16:13.905Z,12.10
2023-01-19T20:18:59.630Z,13.13
2023-01-19T20:21:44.694Z,13.05
2023-01-19T20:24:29.511Z,12.30
2023-01-19T20:27:14.522Z,12.98
2023-01-19T20:29:59.852Z,12.88
2023-01-19T20:32:44.493Z,11.73
2023-01-19T20:35:29.436Z,11.30
2023-01-19T20:38:14.358Z,12.63
2023-01-19T20:40:59.316Z,12.50
2023-01-19T20:43:44.413Z,11.57
2023-01-19T20:46:29.414Z,11.50
2023-01-19T20:49:14.541Z,11.80
2023-01-19T20:51:59.357Z,13.00
2023-01-19T20:54:46.859Z,12.32
2023-01-19T20:57:31.780Z,12.32
2023-01-19T21:00:17.203Z,12.02
2023-01-19T21:03:01.733Z,12.25
2023-01-19T21:05:47.889Z,12.98
2023-01-19T21:08:32.907Z,12.65
2023-01-19T21:11:20.418Z,13.30
2023-01-19T21:14:06.503Z,12.45
2023-01-19T21:16:51.404Z,13.63
2023-01-19T21:19:36.449Z,13.60
2023-01-19T21:22:21.469Z,13.93
2023-01-19T21:25:07.101Z,12.18
2023-01-19T21:27:52.024Z,12.38
2023-01-19T21:30:36.970Z,12.40
2023-01-19T21:33:22.517Z,11.77
2023-01-19T21:36:09.491Z,12.60
2023-01-19T21:38:59.697Z,13.77
2023-01-19T21:41:44.842Z,13.07
2023-01-19T21:44:29.619Z,11.20
2023-01-19T21:47:14.523Z,12.70
2023-01-19T21:50:00.782Z,13.48
2023-01-19T21:52:45.537Z,12.38
2023-01-19T21:55:30.840Z,12.45
2023-01-19T21:58:15.215Z,11.90
2023-01-19T22:01:03.263Z,12.65
2023-01-19T22:03:49.151Z,12.25
2023-01-19T22:06:34.005Z,11.93
2023-01-19T22:09:18.806Z,11.75
2023-01-19T22:12:03.887Z,11.95
2023-01-19T22:14:48.586Z,11.38
2023-01-19T22:17:33.632Z,11.60
2023-01-19T22:20:18.524Z,11.02
2023-01-19T22:23:03.624Z,11.38
2023-01-19T22:25:48.547Z,12.65
2023-01-19T22:28:34.131Z,10.38
2023-01-19T22:31:18.924Z,11.63
2023-01-19T22:34:04.249Z,10.65
2023-01-19T22:36:49.643Z,9.73
2023-01-19T22:39:34.722Z,9.90
2023-01-19T22:42:19.651Z,10.95
2023-01-19T22:45:05.164Z,9.18
2023-01-19T22:47:50.401Z,10.40
2023-01-19T22:50:34.971Z,9.98
2023-01-19T22:53:19.656Z,10.18
2023-01-19T22:56:16.140Z,9.65
2023-01-19T22:59:02.045Z,9.98
2023-01-19T23:01:48.894Z,10.20
2023-01-19T23:04:33.984Z,11.05
2023-01-19T23:07:18.890Z,12.30
2023-01-19T23:10:04.257Z,11.73
2023-01-19T23:12:48.890Z,11.52
2023-01-19T23:15:34.391Z,11.88
2023-01-19T23:18:21.915Z,12.35
2023-01-19T23:21:10.122Z,13.20
2023-01-19T23:23:59.788Z,10.98
2023-01-19T23:26:44.362Z,11.32
2023-01-19T23:29:29.480Z,13.02
2023-01-19T23:32:14.254Z,13.15
2023-01-19T23:34:59.169Z,13.77
2023-01-19T23:37:44.102Z,13.38
2023-01-19T23:40:29.075Z,15.45
2023-01-19T23:43:13.950Z,13.30
2023-01-19T23:46:07.836Z,13.70
2023-01-19T23:48:53.041Z,12.68
2023-01-19T23:51:39.525Z,11.85
2023-01-19T23:54:25.459Z,11.27
2023-01-19T23:57:10.692Z,13.05
2023-01-19T23:59:55.567Z,11.85
